Aviation Digital Data Service (ADDS)

Output produced by METARs form (1138 UTC 21 April 2015)
found at http://aviationweather.gov/adds/metars/
 
KMHT 211124Z 2112/2212 04006KT P6SM OVC005 
     FM211600 26008KT P6SM BKN040 
     FM220000 25005KT P6SM SKC